Time;durP1;ratioP1;P1;durP2;ratioP2;P2;SDS_P1;SDS_P2;PMS_P1;PMS_P2;Temp;Humidity;BMP_temperature;BMP_pressure;BME280_temperature;BME280_humidity;BME280_pressure;Samples;Min_cycle;Max_cycle;Signal;HPM_P1;HPM_P2
2024/02/11 00:00:38;;;;;;;114.68;9.77;;;;;;;8.05;83.22;97172.59;5098729;28;20146;-49
2024/02/11 00:03:05;;;;;;;131.32;11.27;;;;;;;8.05;83.11;97172.59;5095028;28;20178;-50
2024/02/11 00:05:32;;;;;;;136.18;10.82;;;;;;;8.02;83.10;97177.84;5094829;28;20058;-53
2024/02/11 00:07:59;;;;;;;143.57;9.48;;;;;;;7.99;83.02;97176.25;5091001;28;20048;-50
2024/02/11 00:10:26;;;;;;;71.03;8.50;;;;;;;7.98;83.53;97177.16;5079286;28;20508;-47
2024/02/11 00:12:53;;;;;;;111.38;8.98;;;;;;;7.95;82.89;97166.94;5078568;28;20048;-46
2024/02/11 00:15:21;;;;;;;23.45;7.68;;;;;;;7.94;82.69;97170.44;5077652;28;20044;-49
2024/02/11 00:17:49;;;;;;;25.10;8.95;;;;;;;7.93;83.02;97169.59;5077390;28;20417;-50
2024/02/11 00:20:19;;;;;;;24.73;9.05;;;;;;;7.90;82.37;97164.53;5079282;28;20075;-54
2024/02/11 00:22:48;;;;;;;28.27;7.97;;;;;;;7.90;83.21;97169.69;5077250;28;20114;-49
2024/02/11 00:25:16;;;;;;;56.92;7.65;;;;;;;7.88;82.33;97168.06;5076211;28;20103;-48
2024/02/11 00:27:49;;;;;;;94.00;9.23;;;;;;;7.87;82.99;97164.66;5073343;28;20040;-50
2024/02/11 00:30:16;;;;;;;176.82;11.48;;;;;;;7.85;82.50;97161.31;5078953;28;20052;-50
2024/02/11 00:32:43;;;;;;;146.43;10.23;;;;;;;7.84;82.55;97167.38;5076631;28;20048;-52
2024/02/11 00:35:15;;;;;;;101.00;9.43;;;;;;;7.81;83.14;97167.47;5076756;28;20622;-50
2024/02/11 00:37:42;;;;;;;167.85;11.18;;;;;;;7.80;82.42;97173.53;5078681;28;20052;-48
2024/02/11 00:40:10;;;;;;;171.23;10.30;;;;;;;7.77;83.31;97181.38;5078424;28;20044;-52
2024/02/11 00:42:37;;;;;;;78.93;8.68;;;;;;;7.76;83.03;97187.41;5077192;28;20056;-53
2024/02/11 00:45:04;;;;;;;32.10;7.03;;;;;;;7.70;82.95;97179.03;5077658;28;20097;-49
2024/02/11 00:47:31;;;;;;;62.42;7.85;;;;;;;7.66;82.80;97182.59;5061015;28;20048;-48
2024/02/11 00:49:58;;;;;;;23.67;8.38;;;;;;;7.64;82.59;97187.00;5062254;28;20134;-49
2024/02/11 00:52:24;;;;;;;17.42;6.63;;;;;;;7.63;82.80;97185.28;5063412;28;20129;-49
2024/02/11 00:54:51;;;;;;;19.55;7.60;;;;;;;7.61;83.20;97189.69;5064807;28;20044;-49
2024/02/11 00:57:19;;;;;;;17.67;6.80;;;;;;;7.60;83.06;97182.81;5065098;28;20056;-49
2024/02/11 00:59:47;;;;;;;10.95;4.97;;;;;;;7.58;83.44;97187.22;5063377;28;20052;-47
2024/02/11 01:02:15;;;;;;;11.23;6.00;;;;;;;7.56;83.14;97196.72;5064084;28;20409;-49
2024/02/11 01:04:42;;;;;;;12.45;4.68;;;;;;;7.53;83.38;97196.84;5061930;28;20497;-49
2024/02/11 01:07:09;;;;;;;11.07;5.45;;;;;;;7.51;82.87;97199.47;5063524;28;20067;-49
2024/02/11 01:09:38;;;;;;;12.30;5.30;;;;;;;7.49;83.54;97205.59;5062730;28;20417;-50
2024/02/11 01:12:05;;;;;;;12.65;4.63;;;;;;;7.46;82.44;97199.63;5060786;28;20087;-48
2024/02/11 01:14:32;;;;;;;10.38;4.43;;;;;;;7.45;83.12;97200.53;5059136;28;20048;-51
2024/02/11 01:17:01;;;;;;;11.93;4.32;;;;;;;7.45;83.50;97210.00;5059428;28;20144;-52
2024/02/11 01:19:29;;;;;;;11.48;4.72;;;;;;;7.45;82.29;97213.41;5062757;28;20048;-50
2024/02/11 01:21:56;;;;;;;11.70;4.60;;;;;;;7.45;83.64;97210.84;5059660;28;20068;-48
2024/02/11 01:24:23;;;;;;;6.93;3.90;;;;;;;7.45;83.65;97210.84;5061145;28;20044;-50
2024/02/11 01:26:51;;;;;;;8.43;3.45;;;;;;;7.46;82.41;97216.81;5061875;28;20175;-50
2024/02/11 01:29:18;;;;;;;8.68;3.65;;;;;;;7.46;82.55;97215.09;5061075;28;20518;-50
2024/02/11 01:31:47;;;;;;;9.57;3.60;;;;;;;7.45;82.67;97215.13;5067377;28;20562;-49
2024/02/11 01:34:16;;;;;;;9.70;3.80;;;;;;;7.45;82.97;97213.41;5066587;28;21558;-50
2024/02/11 01:36:44;;;;;;;8.30;4.00;;;;;;;7.43;83.30;97210.03;5064705;28;20054;-49
2024/02/11 01:39:14;;;;;;;7.88;2.97;;;;;;;7.44;82.56;97214.28;5067374;28;20063;-50
2024/02/11 01:41:42;;;;;;;6.68;2.92;;;;;;;7.42;82.13;97210.94;5061038;28;20048;-46
2024/02/11 01:44:14;;;;;;;5.63;2.85;;;;;;;7.40;82.00;97211.91;5067717;28;20056;-47
2024/02/11 01:46:43;;;;;;;7.97;3.28;;;;;;;7.36;82.92;97218.88;5066951;28;20889;-48
2024/02/11 01:49:11;;;;;;;14.60;2.95;;;;;;;7.33;82.14;97216.44;5066228;28;20139;-49
2024/02/11 01:51:42;;;;;;;5.28;2.47;;;;;;;7.33;82.36;97213.84;5068098;28;20127;-46
2024/02/11 01:54:12;;;;;;;5.60;2.78;;;;;;;7.31;82.22;97202.75;5066872;28;20139;-50
2024/02/11 01:56:40;;;;;;;11.70;2.22;;;;;;;7.30;82.56;97206.22;5062165;28;20041;-50
2024/02/11 01:59:09;;;;;;;4.50;2.45;;;;;;;7.27;82.83;97211.47;5060066;28;20052;-53
2024/02/11 02:01:36;;;;;;;9.02;2.50;;;;;;;7.25;82.20;97205.53;5064652;28;20126;-47
2024/02/11 02:04:04;;;;;;;5.00;2.72;;;;;;;7.23;82.26;97209.91;5059695;28;20044;-47
2024/02/11 02:06:31;;;;;;;3.83;2.08;;;;;;;7.19;82.35;97217.75;5058819;28;20153;-46
2024/02/11 02:09:00;;;;;;;4.35;2.40;;;;;;;7.17;83.24;97222.09;5059162;28;20139;-47
2024/02/11 02:11:28;;;;;;;4.43;2.35;;;;;;;7.14;82.52;97222.22;5060234;28;20045;-49
2024/02/11 02:13:55;;;;;;;10.15;2.63;;;;;;;7.13;82.25;97224.84;5053227;28;20044;-48
2024/02/11 02:16:22;;;;;;;4.50;2.45;;;;;;;7.10;83.44;97220.63;5057005;28;20044;-52
2024/02/11 02:18:51;;;;;;;6.25;1.98;;;;;;;7.07;81.98;97220.75;5063451;28;20067;-54
2024/02/11 02:21:23;;;;;;;4.03;1.90;;;;;;;7.04;82.15;97215.69;5066972;28;20048;-46
2024/02/11 02:23:51;;;;;;;4.55;1.90;;;;;;;7.01;82.17;97214.06;5069216;28;20052;-49
2024/02/11 02:26:17;;;;;;;4.60;2.03;;;;;;;6.98;83.07;97215.88;5067120;28;20056;-50
2024/02/11 02:28:44;;;;;;;4.53;2.35;;;;;;;6.95;82.74;97219.41;5067515;28;20048;-46
2024/02/11 02:31:11;;;;;;;8.00;2.13;;;;;;;6.93;81.86;97214.31;5066288;28;20516;-50
2024/02/11 02:33:38;;;;;;;6.80;2.72;;;;;;;6.91;82.67;97216.13;5066307;28;20053;-51
2024/02/11 02:36:05;;;;;;;3.03;1.75;;;;;;;6.90;82.90;97211.00;5062676;28;20056;-47
2024/02/11 02:38:32;;;;;;;6.70;1.88;;;;;;;6.88;83.36;97217.94;5063449;28;20451;-49
2024/02/11 02:41:00;;;;;;;5.07;1.95;;;;;;;6.85;82.03;97220.63;5066829;28;20126;-48
2024/02/11 02:43:27;;;;;;;5.20;2.25;;;;;;;6.82;82.27;97216.41;5064119;28;20056;-50
2024/02/11 02:45:54;;;;;;;6.25;1.73;;;;;;;6.79;82.38;97219.09;5058151;28;20045;-49
2024/02/11 02:48:21;;;;;;;4.32;1.67;;;;;;;6.76;83.04;97217.44;5056185;28;20049;-52
2024/02/11 02:50:49;;;;;;;3.58;1.60;;;;;;;6.73;82.19;97217.56;5059059;28;20052;-50
2024/02/11 02:53:16;;;;;;;3.67;1.83;;;;;;;6.70;82.02;97212.50;5058477;28;20071;-50
2024/02/11 02:55:43;;;;;;;4.35;1.77;;;;;;;6.67;82.64;97216.03;5058885;28;20064;-47
2024/02/11 02:58:13;;;;;;;8.32;1.67;;;;;;;6.66;83.24;97206.63;5056259;28;20526;-51
2024/02/11 03:00:41;;;;;;;3.60;2.38;;;;;;;6.63;82.69;97208.47;5058871;28;20147;-49
2024/02/11 03:03:08;;;;;;;3.60;1.55;;;;;;;6.62;82.28;97210.19;5055854;28;20044;-52
2024/02/11 03:05:37;;;;;;;4.25;1.42;;;;;;;6.58;81.71;97213.75;5055200;28;20060;-48
2024/02/11 03:08:05;;;;;;;3.38;1.83;;;;;;;6.57;82.69;97217.22;5057851;28;20063;-51
2024/02/11 03:10:33;;;;;;;4.32;1.95;;;;;;;6.53;82.48;97210.50;5058359;28;20052;-46
2024/02/11 03:13:00;;;;;;;3.25;1.88;;;;;;;6.50;81.68;97210.59;5061816;28;20127;-53
2024/02/11 03:15:27;;;;;;;3.75;1.23;;;;;;;6.47;82.73;97210.69;5057239;28;20052;-50
2024/02/11 03:17:54;;;;;;;3.35;2.97;;;;;;;6.45;82.96;97207.31;5055441;28;20975;-53
2024/02/11 03:20:20;;;;;;;3.00;1.58;;;;;;;6.40;81.80;97204.91;5065301;28;20086;-48
2024/02/11 03:22:48;;;;;;;3.67;2.03;;;;;;;6.36;82.31;97209.31;5066856;28;20135;-48
2024/02/11 03:25:15;;;;;;;3.60;2.10;;;;;;;6.34;83.31;97199.94;5065303;28;20041;-49
2024/02/11 03:27:42;;;;;;;5.07;1.83;;;;;;;6.30;83.17;97201.78;5058964;28;20045;-49
2024/02/11 03:30:10;;;;;;;2.65;1.13;;;;;;;6.27;81.53;97201.84;5065566;28;20053;-50
2024/02/11 03:32:37;;;;;;;2.72;2.25;;;;;;;6.22;82.58;97202.03;5062318;28;20044;-49
2024/02/11 03:35:05;;;;;;;5.45;1.27;;;;;;;6.19;83.14;97203.84;5066029;28;20050;-52
2024/02/11 03:37:33;;;;;;;2.55;1.45;;;;;;;6.13;82.05;97200.56;5058675;28;20049;-50
2024/02/11 03:40:08;;;;;;;3.17;1.45;;;;;;;6.12;82.42;97205.75;5063092;28;20052;-50
2024/02/11 03:42:36;;;;;;;4.18;1.90;;;;;;;6.06;82.37;97203.34;5060592;28;20051;-49
2024/02/11 03:45:11;;;;;;;2.83;1.20;;;;;;;6.02;82.67;97210.31;5065077;28;20799;-50
2024/02/11 03:47:39;;;;;;;4.05;1.85;;;;;;;5.97;81.84;97212.16;5059637;28;20048;-49
2024/02/11 03:50:10;;;;;;;3.38;1.77;;;;;;;5.92;82.98;97215.69;5065978;28;20127;-49
2024/02/11 03:52:37;;;;;;;95.97;4.40;;;;;;;5.88;81.58;97219.25;5059057;28;20090;-46
2024/02/11 03:55:12;;;;;;;70.97;3.08;;;;;;;5.84;82.32;97217.66;5059311;28;20045;-47
2024/02/11 03:57:40;;;;;;;21.52;2.58;;;;;;;5.78;81.92;97212.72;5057862;28;20425;-51
2024/02/11 04:00:25;;;;;;;30.65;2.13;;;;;;;5.74;82.97;97211.13;5057735;28;20069;-51
2024/02/11 04:02:53;;;;;;;16.27;2.00;;;;;;;5.69;82.53;97226.66;5057388;28;20049;-48
2024/02/11 04:05:22;;;;;;;4.78;1.90;;;;;;;5.65;81.70;97236.16;5056966;28;20564;-53
2024/02/11 04:07:50;;;;;;;5.72;1.80;;;;;;;5.62;82.53;97232.84;5040447;28;20052;-46
2024/02/11 04:10:21;;;;;;;2.33;1.20;;;;;;;5.60;82.84;97232.03;5057579;28;20513;-51
2024/02/11 04:12:52;;;;;;;2.38;1.40;;;;;;;5.55;81.61;97232.19;5054890;28;20052;-52
2024/02/11 04:15:22;;;;;;;5.78;1.63;;;;;;;5.52;81.53;97227.97;5052064;28;20049;-47
2024/02/11 04:17:52;;;;;;;3.83;1.92;;;;;;;5.50;81.46;97231.44;5058631;28;20052;-46
2024/02/11 04:20:24;;;;;;;4.43;2.63;;;;;;;5.47;82.73;97234.13;5062540;28;20051;-49
2024/02/11 04:22:57;;;;;;;3.53;2.05;;;;;;;5.45;82.64;97233.31;5069508;28;20056;-49
2024/02/11 04:25:26;;;;;;;9.63;2.08;;;;;;;5.41;82.80;97235.13;5067212;28;20148;-50
2024/02/11 04:27:53;;;;;;;7.60;1.98;;;;;;;5.38;82.73;97230.06;5061814;28;20044;-49
2024/02/11 04:30:19;;;;;;;6.45;1.73;;;;;;;5.35;82.48;97231.00;5063300;28;20425;-51
2024/02/11 04:32:48;;;;;;;4.55;1.80;;;;;;;5.33;82.46;97227.63;5061291;28;20060;-53
2024/02/11 04:35:16;;;;;;;5.15;2.03;;;;;;;5.33;81.98;97231.94;5068630;28;20045;-48
2024/02/11 04:37:49;;;;;;;3.13;1.67;;;;;;;5.30;81.88;97230.25;5062002;28;20083;-50
2024/02/11 04:40:17;;;;;;;7.53;2.60;;;;;;;5.28;82.98;97237.19;5063635;28;20048;-52
2024/02/11 04:42:45;;;;;;;6.15;2.28;;;;;;;5.26;82.19;97234.66;5063991;28;20056;-49
2024/02/11 04:45:16;;;;;;;7.82;1.80;;;;;;;5.25;81.67;97237.25;5063343;28;20058;-49
2024/02/11 04:47:45;;;;;;;16.42;2.40;;;;;;;5.23;82.60;97239.00;5067930;28;20459;-51
2024/02/11 04:50:15;;;;;;;10.30;2.70;;;;;;;5.21;81.87;97243.34;5067007;28;20045;-47
2024/02/11 04:52:48;;;;;;;;;;;;;;;5.09;81.85;97249.63;5064243;28;20114;-48
2024/02/11 04:55:15;;;;;;;5.20;2.78;;;;;;;5.10;81.99;97247.03;5077657;28;19924;-49
2024/02/11 04:57:42;;;;;;;3.30;1.73;;;;;;;5.09;82.82;97255.63;5066157;28;20501;-50
2024/02/11 05:00:23;;;;;;;5.65;2.58;;;;;;;5.09;82.53;97263.31;5065889;28;20056;-50
2024/02/11 05:02:51;;;;;;;8.43;4.45;;;;;;;5.09;82.39;97268.44;5068577;28;20568;-47
2024/02/11 05:05:28;;;;;;;8.50;4.55;;;;;;;5.08;82.85;97274.47;5068339;28;20794;-47
2024/02/11 05:07:56;;;;;;;6.78;3.17;;;;;;;5.08;83.00;97268.47;5066268;28;20135;-50
2024/02/11 05:10:24;;;;;;;7.65;3.05;;;;;;;5.09;82.46;97271.00;5064940;28;20052;-49
2024/02/11 05:12:51;;;;;;;4.50;1.70;;;;;;;5.09;81.83;97268.44;5062922;28;20405;-48
2024/02/11 05:15:20;;;;;;;4.10;2.20;;;;;;;5.09;81.95;97271.00;5064560;28;20114;-48
2024/02/11 05:17:48;;;;;;;5.47;1.80;;;;;;;5.10;82.35;97271.88;5065522;28;20083;-47
2024/02/11 05:20:25;;;;;;;4.88;2.08;;;;;;;5.08;82.06;97274.47;5066611;28;20048;-47
2024/02/11 05:22:55;;;;;;;2.40;1.52;;;;;;;5.08;82.80;97274.47;5060890;28;20103;-50
2024/02/11 05:25:23;;;;;;;6.68;2.17;;;;;;;5.08;81.77;97274.47;5047767;28;20101;-58
2024/02/11 05:27:57;;;;;;;3.45;2.10;;;;;;;5.07;81.78;97287.34;5064765;28;20132;-55
2024/02/11 05:30:25;;;;;;;8.50;2.13;;;;;;;5.03;82.10;97291.69;5062342;28;20059;-47
2024/02/11 05:32:54;;;;;;;52.63;3.30;;;;;;;4.99;82.59;97296.06;5060823;28;20067;-48
2024/02/11 05:35:23;;;;;;;80.22;3.42;;;;;;;4.95;81.69;97293.59;5065013;28;20067;-51
2024/02/11 05:37:57;;;;;;;99.68;4.10;;;;;;;4.91;82.07;97297.13;5065883;28;20059;-49
2024/02/11 05:40:26;;;;;;;16.05;2.13;;;;;;;4.85;81.77;97291.25;5062462;28;20218;-52
2024/02/11 05:42:53;;;;;;;5.80;1.55;;;;;;;4.82;81.64;97298.16;5064801;28;20052;-51
2024/02/11 05:45:20;;;;;;;4.18;1.38;;;;;;;4.79;82.00;97299.09;5067211;28;20056;-52
2024/02/11 05:47:48;;;;;;;4.93;1.52;;;;;;;4.78;82.77;97299.97;5066342;28;20060;-49
2024/02/11 05:50:16;;;;;;;3.13;1.60;;;;;;;4.74;82.19;97300.94;5066909;28;20086;-51
2024/02/11 05:52:44;;;;;;;3.33;1.77;;;;;;;4.73;82.12;97304.38;5064747;28;20124;-47
2024/02/11 05:55:15;;;;;;;3.30;1.88;;;;;;;4.71;82.46;97308.69;5065674;28;20056;-48
2024/02/11 05:57:43;;;;;;;3.25;1.83;;;;;;;4.70;82.69;97309.56;5065318;28;20060;-51
2024/02/11 06:00:12;;;;;;;4.03;1.75;;;;;;;4.67;82.14;97310.50;5064387;28;20455;-49
2024/02/11 06:02:41;;;;;;;7.78;1.55;;;;;;;4.67;82.43;97314.78;5065839;28;20155;-48
2024/02/11 06:05:12;;;;;;;2.03;1.20;;;;;;;4.66;82.13;97323.34;5065871;28;20048;-50
2024/02/11 06:07:40;;;;;;;7.03;1.65;;;;;;;4.65;82.65;97316.50;5066220;28;20130;-50
2024/02/11 06:10:08;;;;;;;3.35;1.33;;;;;;;4.65;82.74;97321.63;5059402;28;20049;-47
2024/02/11 06:12:36;;;;;;;3.08;1.98;;;;;;;4.63;82.52;97319.97;5066870;28;20040;-45
2024/02/11 06:15:07;;;;;;;3.30;1.92;;;;;;;4.63;81.80;97329.41;5065837;28;20086;-51
2024/02/11 06:17:34;;;;;;;3.20;1.73;;;;;;;4.62;82.18;97333.66;5057658;28;20053;-53
2024/02/11 06:20:02;;;;;;;4.10;1.95;;;;;;;4.60;82.70;97335.41;5044930;28;20521;-48
2024/02/11 06:22:29;;;;;;;2.28;1.40;;;;;;;4.59;82.04;97338.03;5058921;28;21464;-46
2024/02/11 06:24:56;;;;;;;64.40;2.85;;;;;;;4.55;82.53;97338.94;5062266;28;20374;-46
2024/02/11 06:27:23;;;;;;;11.68;1.70;;;;;;;4.47;82.54;97347.69;5062347;28;20041;-51
2024/02/11 06:29:50;;;;;;;3.05;1.65;;;;;;;4.44;82.70;97346.88;5061474;28;20056;-45
2024/02/11 06:32:17;;;;;;;2.92;1.58;;;;;;;4.40;82.62;97347.81;5059718;28;20052;-49
2024/02/11 06:34:45;;;;;;;2.95;1.40;;;;;;;4.39;82.54;97351.28;5057923;28;20752;-48
2024/02/11 06:37:12;;;;;;;4.47;2.55;;;;;;;4.39;82.73;97351.28;5058948;28;20044;-47
2024/02/11 06:39:39;;;;;;;3.33;1.67;;;;;;;4.39;82.47;97353.84;5059596;28;20055;-51
2024/02/11 06:42:09;;;;;;;4.57;2.38;;;;;;;4.39;82.87;97358.97;5058292;28;20048;-49
2024/02/11 06:44:38;;;;;;;3.13;1.77;;;;;;;4.39;82.59;97366.66;5057226;28;20052;-48
2024/02/11 06:47:09;;;;;;;10.75;2.13;;;;;;;4.37;81.71;97364.97;5058041;28;20064;-52
2024/02/11 06:49:38;;;;;;;65.32;2.63;;;;;;;4.32;82.40;97377.00;5074178;28;20512;-49
2024/02/11 06:52:09;;;;;;;30.45;3.70;;;;;;;4.26;82.46;97377.16;5056032;28;20052;-46
2024/02/11 06:54:38;;;;;;;93.95;6.13;;;;;;;4.21;81.70;97379.81;5056076;28;20044;-47
2024/02/11 06:57:06;;;;;;;62.40;4.03;;;;;;;4.19;82.03;97373.03;5056963;28;20048;-46
2024/02/11 06:59:34;;;;;;;4.15;2.30;;;;;;;4.16;82.55;97383.34;5055811;28;20048;-51
2024/02/11 07:02:04;;;;;;;2.92;1.20;;;;;;;4.11;82.28;97384.28;5059515;28;20049;-45
2024/02/11 07:04:33;;;;;;;5.32;2.40;;;;;;;4.10;82.61;97387.72;5057666;28;20567;-50
2024/02/11 07:07:03;;;;;;;7.18;3.15;;;;;;;4.09;82.34;97396.25;5061161;28;20055;-51
2024/02/11 07:09:30;;;;;;;13.85;2.72;;;;;;;4.07;82.32;97398.00;5077442;28;20048;-47
2024/02/11 07:11:57;;;;;;;25.02;2.88;;;;;;;4.05;82.66;97399.75;5061237;28;20052;-50
2024/02/11 07:14:26;;;;;;;5.10;1.50;;;;;;;4.03;82.34;97401.50;5059820;28;20509;-48
2024/02/11 07:16:54;;;;;;;10.30;1.23;;;;;;;4.01;82.01;97402.41;5059645;28;20407;-48
2024/02/11 07:19:24;;;;;;;7.55;1.58;;;;;;;3.99;82.25;97405.00;5054677;28;20072;-48
2024/02/11 07:21:52;;;;;;;14.27;1.40;;;;;;;3.97;82.33;97401.63;5060758;28;20517;-48
2024/02/11 07:24:19;;;;;;;2.50;1.20;;;;;;;3.97;82.87;97411.84;5065413;28;20044;-49
2024/02/11 07:26:47;;;;;;;2.90;1.52;;;;;;;3.95;82.37;97411.88;5061143;28;20044;-47
2024/02/11 07:29:14;;;;;;;3.40;1.10;;;;;;;3.94;82.31;97422.16;5056224;28;20049;-49
2024/02/11 07:31:41;;;;;;;3.47;1.35;;;;;;;3.93;82.47;97425.59;5061692;28;20083;-51
2024/02/11 07:34:10;;;;;;;3.00;1.60;;;;;;;3.92;82.16;97421.34;5061169;28;20059;-49
2024/02/11 07:36:40;;;;;;;3.38;1.52;;;;;;;3.91;82.31;97422.19;5063150;28;20044;-48
2024/02/11 07:39:08;;;;;;;4.82;2.00;;;;;;;3.91;82.19;97427.31;5063870;28;20125;-50
2024/02/11 07:41:35;;;;;;;5.10;1.10;;;;;;;3.91;82.22;97422.19;5057509;28;20571;-51
2024/02/11 07:44:03;;;;;;;3.95;1.58;;;;;;;3.90;82.32;97431.63;5054044;28;20139;-48
2024/02/11 07:46:30;;;;;;;3.97;2.38;;;;;;;3.90;82.16;97435.88;5053361;28;20753;-47
2024/02/11 07:49:03;;;;;;;7.85;2.05;;;;;;;3.92;82.58;97434.16;5054062;28;20601;-49
2024/02/11 07:51:30;;;;;;;42.88;16.95;;;;;;;3.93;82.53;97446.94;5057243;28;20119;-49
2024/02/11 07:53:57;;;;;;;47.60;17.67;;;;;;;3.95;82.02;97446.91;5056036;28;20048;-50
2024/02/11 07:56:25;;;;;;;35.08;13.82;;;;;;;3.94;81.86;97448.63;5055490;28;20037;-48
2024/02/11 07:58:52;;;;;;;29.45;11.45;;;;;;;3.96;82.49;97449.41;5056177;28;20106;-48
2024/02/11 08:01:19;;;;;;;9.38;4.72;;;;;;;4.00;82.29;97460.47;5054958;28;20052;-48
2024/02/11 08:03:47;;;;;;;8.15;2.63;;;;;;;4.04;82.43;97467.22;5056948;28;20412;-48
2024/02/11 08:06:14;;;;;;;6.65;2.55;;;;;;;4.09;82.36;97472.28;5060259;28;20048;-51
2024/02/11 08:08:43;;;;;;;3.50;1.85;;;;;;;4.13;82.63;97478.19;5060692;28;20087;-47
2024/02/11 08:11:10;;;;;;;12.73;3.03;;;;;;;4.23;82.65;97479.72;5054763;28;20049;-48
2024/02/11 08:13:37;;;;;;;27.63;9.48;;;;;;;4.49;82.80;97480.91;5060135;28;20131;-48
2024/02/11 08:16:05;;;;;;;26.23;10.70;;;;;;;4.63;82.91;97489.19;5060934;28;20053;-47
2024/02/11 08:18:31;;;;;;;25.90;9.60;;;;;;;4.66;81.75;97495.97;5057867;28;20505;-54
2024/02/11 08:20:58;;;;;;;25.63;3.50;;;;;;;4.62;81.49;97492.63;5053709;28;20048;-50
2024/02/11 08:23:25;;;;;;;26.60;3.22;;;;;;;4.57;81.39;97498.72;5058082;28;20049;-50
2024/02/11 08:25:54;;;;;;;32.97;2.67;;;;;;;4.54;81.29;97497.06;5064136;28;20048;-50
2024/02/11 08:28:22;;;;;;;36.95;3.97;;;;;;;4.51;81.19;97499.69;5058712;28;20051;-54
2024/02/11 08:30:49;;;;;;;27.95;3.05;;;;;;;4.50;81.34;97498.00;5050067;28;20079;-52
2024/02/11 08:33:15;;;;;;;33.80;3.05;;;;;;;4.49;81.39;97503.97;5055713;28;20126;-50
2024/02/11 08:35:46;;;;;;;10.40;3.35;;;;;;;4.52;82.08;97508.22;5053914;28;20060;-50
2024/02/11 08:38:14;;;;;;;13.18;3.50;;;;;;;4.53;81.53;97503.06;5055663;28;20045;-52
2024/02/11 08:40:40;;;;;;;27.48;3.85;;;;;;;4.58;81.80;97514.06;5058535;28;20082;-51
2024/02/11 08:43:07;;;;;;;18.02;3.95;;;;;;;4.60;81.44;97514.88;5055660;28;20053;-51
2024/02/11 08:45:36;;;;;;;19.23;4.15;;;;;;;4.66;81.60;97523.34;5058188;28;20055;-52
2024/02/11 08:48:03;;;;;;;21.35;4.22;;;;;;;4.70;82.32;97519.84;5061146;28;20045;-50
2024/02/11 08:50:30;;;;;;;27.63;4.03;;;;;;;4.73;81.86;97524.91;5055049;28;20117;-50
2024/02/11 08:52:57;;;;;;;29.90;5.38;;;;;;;4.79;82.52;97523.94;5057588;28;20098;-52
2024/02/11 08:55:24;;;;;;;19.77;3.25;;;;;;;4.82;81.54;97524.72;5053410;28;20516;-51
2024/02/11 08:57:51;;;;;;;32.17;4.38;;;;;;;4.85;82.77;97529.78;5053073;28;20040;-49
2024/02/11 09:00:18;;;;;;;33.95;4.53;;;;;;;4.89;82.84;97528.84;5055678;28;20044;-52
2024/02/11 09:02:46;;;;;;;16.63;4.47;;;;;;;4.95;81.88;97529.59;5057482;28;20052;-48
2024/02/11 09:05:13;;;;;;;48.10;5.95;;;;;;;5.01;83.28;97529.47;5053719;28;20059;-48
2024/02/11 09:07:42;;;;;;;21.05;5.30;;;;;;;5.07;83.08;97529.34;5052709;28;20052;-47
2024/02/11 09:10:12;;;;;;;56.95;7.55;;;;;;;5.15;82.88;97536.88;5055648;28;20044;-49
2024/02/11 09:12:39;;;;;;;31.02;5.28;;;;;;;5.21;81.72;97535.91;5057675;28;20063;-46
2024/02/11 09:15:08;;;;;;;25.33;4.78;;;;;;;5.31;82.69;97536.56;5063197;28;20110;-52
2024/02/11 09:17:42;;;;;;;23.80;6.53;;;;;;;5.39;82.76;97532.09;5059705;28;20417;-48
2024/02/11 09:20:12;;;;;;;31.23;5.78;;;;;;;5.46;82.33;97540.50;5057520;28;20102;-49
2024/02/11 09:22:41;;;;;;;32.17;5.78;;;;;;;5.52;83.36;97541.22;5055768;28;20052;-50
2024/02/11 09:25:11;;;;;;;25.35;5.35;;;;;;;5.61;83.30;97545.28;5054157;28;20048;-47
2024/02/11 09:27:39;;;;;;;22.08;5.10;;;;;;;5.63;83.00;97533.25;5065564;28;20080;-48
2024/02/11 09:30:08;;;;;;;17.48;4.50;;;;;;;5.73;83.26;97533.03;5059388;28;20047;-48
2024/02/11 09:32:36;;;;;;;24.48;5.47;;;;;;;6.11;83.79;97543.31;5058270;28;20087;-48
2024/02/11 09:35:03;;;;;;;24.05;4.88;;;;;;;6.47;83.48;97544.94;5056530;28;20110;-49
2024/02/11 09:37:31;;;;;;;29.33;6.32;;;;;;;6.62;82.43;97554.00;5050927;28;20048;-49
2024/02/11 09:39:58;;;;;;;42.13;9.45;;;;;;;6.71;82.40;97552.88;5053647;28;20489;-51
2024/02/11 09:42:25;;;;;;;48.38;11.32;;;;;;;6.77;83.44;97551.00;5056970;28;20414;-46
2024/02/11 09:44:53;;;;;;;47.65;13.23;;;;;;;6.85;81.91;97566.22;5057859;28;20083;-51
2024/02/11 09:47:21;;;;;;;75.35;20.50;;;;;;;6.94;82.55;97565.13;5057173;28;20812;-48
2024/02/11 09:49:52;;;;;;;52.42;15.75;;;;;;;7.00;82.82;97558.97;5056241;28;20056;-50
2024/02/11 09:52:20;;;;;;;43.75;13.52;;;;;;;7.15;82.52;97562.81;5036974;28;20048;-51
2024/02/11 09:54:50;;;;;;;49.45;15.15;;;;;;;7.57;82.83;97569.34;5053802;28;20489;-48
2024/02/11 09:57:17;;;;;;;62.83;19.08;;;;;;;7.66;82.14;97574.19;5049784;28;20797;-51
2024/02/11 09:59:45;;;;;;;72.50;21.20;;;;;;;7.97;81.49;97569.81;5060001;28;20062;-47
2024/02/11 10:02:17;;;;;;;29.15;9.57;;;;;;;8.53;81.72;97574.88;5045937;28;20194;-48
2024/02/11 10:04:46;;;;;;;35.80;10.93;;;;;;;9.20;81.62;97578.59;5054147;28;20057;-48
2024/02/11 10:07:23;;;;;;;41.50;14.20;;;;;;;9.51;79.57;97579.16;5045430;28;20509;-45
2024/02/11 10:09:50;;;;;;;49.78;15.02;;;;;;;10.14;80.92;97577.59;5058153;28;20053;-52
2024/02/11 10:12:19;;;;;;;47.33;15.07;;;;;;;10.84;79.21;97584.22;5055753;28;21319;-48
2024/02/11 10:14:52;;;;;;;39.50;14.10;;;;;;;11.54;78.54;97581.97;5055551;28;20057;-51
2024/02/11 10:17:20;;;;;;;29.20;12.07;;;;;;;11.79;76.94;97583.38;5060089;28;20493;-49
2024/02/11 10:19:51;;;;;;;42.95;14.68;;;;;;;11.91;77.22;97594.09;5053810;28;20056;-49
2024/02/11 10:22:18;;;;;;;56.30;18.10;;;;;;;11.98;77.13;97592.88;5056586;28;20048;-52
2024/02/11 10:24:56;;;;;;;27.65;9.52;;;;;;;11.76;75.70;97598.25;5061470;28;20073;-49
2024/02/11 10:27:24;;;;;;;32.83;11.90;;;;;;;11.44;76.05;97598.84;5057138;28;20037;-50
2024/02/11 10:29:51;;;;;;;28.58;7.53;;;;;;;11.01;76.27;97605.03;5052426;28;20075;-49
2024/02/11 10:32:17;;;;;;;19.63;6.63;;;;;;;10.59;76.29;97608.56;5060117;28;20052;-52
2024/02/11 10:34:45;;;;;;;24.17;7.88;;;;;;;10.25;77.14;97611.63;5058358;28;20056;-49
2024/02/11 10:37:14;;;;;;;18.55;6.15;;;;;;;9.92;76.35;97614.66;5059280;28;20044;-48
2024/02/11 10:39:42;;;;;;;15.95;5.80;;;;;;;9.66;77.29;97618.25;5054801;28;20122;-50
2024/02/11 10:42:11;;;;;;;25.05;7.65;;;;;;;9.50;77.53;97624.81;5057881;28;20047;-49
2024/02/11 10:44:39;;;;;;;22.95;8.10;;;;;;;9.32;78.65;97628.94;5059362;28;20053;-49
2024/02/11 10:49:44;;;;;;;30.23;8.00;;;;;;;9.05;78.94;97623.03;5046504;28;20905;-48
2024/02/11 10:52:14;;;;;;;19.23;6.03;;;;;;;8.90;79.16;97630.41;4999432;28;20058;-46
2024/02/11 10:54:42;;;;;;;18.40;6.88;;;;;;;8.73;78.63;97629.28;4996964;28;20061;-48
2024/02/11 10:57:12;;;;;;;16.52;6.68;;;;;;;8.48;78.50;97635.22;4999853;28;20045;-47
2024/02/11 10:59:45;;;;;;;28.98;8.90;;;;;;;8.48;79.29;97645.53;4997919;28;20125;-48
2024/02/11 11:02:15;;;;;;;21.52;7.20;;;;;;;8.35;79.65;97639.09;5014439;28;20061;-49
2024/02/11 11:04:44;;;;;;;22.83;7.60;;;;;;;8.30;79.89;97640.97;4996325;28;20472;-48
2024/02/11 11:07:15;;;;;;;20.15;7.60;;;;;;;8.28;78.97;97645.34;5001361;28;20547;-54
2024/02/11 11:09:45;;;;;;;21.08;7.35;;;;;;;8.25;79.92;97648.88;5000321;28;20074;-49
2024/02/11 11:12:16;;;;;;;24.63;8.45;;;;;;;8.22;79.86;97664.44;5002824;28;20052;-47
2024/02/11 11:14:44;;;;;;;20.35;8.15;;;;;;;8.03;79.79;97653.84;5002860;28;20529;-48
2024/02/11 11:17:22;;;;;;;23.13;7.43;;;;;;;8.02;80.20;97662.47;5014803;28;20050;-53
2024/02/11 11:19:50;;;;;;;31.33;9.65;;;;;;;8.03;80.29;97664.16;5000862;28;20064;-48
2024/02/11 11:22:27;;;;;;;28.52;9.48;;;;;;;7.98;80.18;97677.19;4998023;28;20534;-46
2024/02/11 11:24:55;;;;;;;;;;;;;;;7.88;80.64;97676.63;4996239;28;20630;-40
2024/02/11 11:27:23;;;;;;;21.00;6.95;;;;;;;7.77;80.12;97681.25;4996680;28;20295;-49
2024/02/11 11:29:53;;;;;;;25.00;9.93;;;;;;;7.75;79.92;97685.59;4999036;28;20662;-42
2024/02/11 11:32:22;;;;;;;24.58;8.93;;;;;;;7.70;80.58;97686.59;4996430;28;20042;-49
2024/02/11 11:34:51;;;;;;;26.88;10.23;;;;;;;7.67;80.06;97694.41;4996712;28;20050;-53
2024/02/11 11:37:18;;;;;;;27.55;8.73;;;;;;;7.62;80.19;97691.13;4998989;28;20054;-47
2024/02/11 11:39:45;;;;;;;21.92;8.15;;;;;;;7.62;80.08;97691.13;4999505;28;20085;-45
2024/02/11 11:42:14;;;;;;;27.13;9.05;;;;;;;7.65;81.27;97698.78;5000413;28;20041;-48
2024/02/11 11:44:40;;;;;;;15.38;5.35;;;;;;;7.60;80.53;97703.19;4996597;28;20076;-46